sensor_id;sensor_type;location;lat;lon;timestamp;P1;durP1;ratioP1;P2;durP2;ratioP2
11427;SDS011;5770;44.504;11.346;2023-04-06T00:01:11;5.78;;;4.35;;
11427;SDS011;5770;44.504;11.346;2023-04-06T00:03:38;4.78;;;3.95;;
11427;SDS011;5770;44.504;11.346;2023-04-06T00:06:06;8.95;;;3.97;;
11427;SDS011;5770;44.504;11.346;2023-04-06T00:08:33;6.00;;;4.40;;
11427;SDS011;5770;44.504;11.346;2023-04-06T00:11:02;10.00;;;4.18;;
11427;SDS011;5770;44.504;11.346;2023-04-06T00:13:29;6.85;;;4.20;;
11427;SDS011;5770;44.504;11.346;2023-04-06T00:15:56;4.90;;;3.80;;
11427;SDS011;5770;44.504;11.346;2023-04-06T00:18:24;6.20;;;4.35;;
11427;SDS011;5770;44.504;11.346;2023-04-06T00:20:51;4.05;;;3.60;;
11427;SDS011;5770;44.504;11.346;2023-04-06T00:23:18;11.85;;;4.55;;
11427;SDS011;5770;44.504;11.346;2023-04-06T00:25:46;8.60;;;4.25;;
11427;SDS011;5770;44.504;11.346;2023-04-06T00:28:14;7.25;;;4.40;;
11427;SDS011;5770;44.504;11.346;2023-04-06T00:30:41;6.07;;;4.28;;
11427;SDS011;5770;44.504;11.346;2023-04-06T00:33:09;11.02;;;4.40;;
11427;SDS011;5770;44.504;11.346;2023-04-06T00:35:36;9.10;;;4.53;;
11427;SDS011;5770;44.504;11.346;2023-04-06T00:38:03;6.13;;;3.97;;
11427;SDS011;5770;44.504;11.346;2023-04-06T00:40:31;6.57;;;4.28;;
11427;SDS011;5770;44.504;11.346;2023-04-06T00:42:59;5.47;;;4.10;;
11427;SDS011;5770;44.504;11.346;2023-04-06T00:45:28;4.78;;;3.65;;
11427;SDS011;5770;44.504;11.346;2023-04-06T00:47:56;7.78;;;4.00;;
11427;SDS011;5770;44.504;11.346;2023-04-06T00:50:23;5.55;;;4.07;;
11427;SDS011;5770;44.504;11.346;2023-04-06T00:52:51;5.45;;;4.13;;
11427;SDS011;5770;44.504;11.346;2023-04-06T00:55:19;5.68;;;3.70;;
11427;SDS011;5770;44.504;11.346;2023-04-06T00:57:46;8.88;;;3.90;;
11427;SDS011;5770;44.504;11.346;2023-04-06T01:00:14;4.70;;;3.95;;
11427;SDS011;5770;44.504;11.346;2023-04-06T01:02:43;5.88;;;3.80;;
11427;SDS011;5770;44.504;11.346;2023-04-06T01:05:11;5.68;;;3.97;;
11427;SDS011;5770;44.504;11.346;2023-04-06T01:07:38;4.82;;;3.92;;
11427;SDS011;5770;44.504;11.346;2023-04-06T01:10:06;5.03;;;3.92;;
11427;SDS011;5770;44.504;11.346;2023-04-06T01:12:33;5.00;;;3.88;;
11427;SDS011;5770;44.504;11.346;2023-04-06T01:15:01;7.90;;;4.18;;
11427;SDS011;5770;44.504;11.346;2023-04-06T01:17:28;5.63;;;3.83;;
11427;SDS011;5770;44.504;11.346;2023-04-06T01:19:57;5.70;;;4.00;;
11427;SDS011;5770;44.504;11.346;2023-04-06T01:22:25;4.10;;;3.67;;
11427;SDS011;5770;44.504;11.346;2023-04-06T01:24:53;4.45;;;3.97;;
11427;SDS011;5770;44.504;11.346;2023-04-06T01:27:20;4.28;;;3.70;;
11427;SDS011;5770;44.504;11.346;2023-04-06T01:29:47;4.32;;;3.70;;
11427;SDS011;5770;44.504;11.346;2023-04-06T01:32:14;6.38;;;4.05;;
11427;SDS011;5770;44.504;11.346;2023-04-06T01:34:42;5.30;;;4.22;;
11427;SDS011;5770;44.504;11.346;2023-04-06T01:37:09;5.93;;;3.90;;
11427;SDS011;5770;44.504;11.346;2023-04-06T01:39:37;4.93;;;4.00;;
11427;SDS011;5770;44.504;11.346;2023-04-06T01:42:04;7.05;;;4.20;;
11427;SDS011;5770;44.504;11.346;2023-04-06T01:44:31;6.35;;;3.92;;
11427;SDS011;5770;44.504;11.346;2023-04-06T01:46:58;4.22;;;3.63;;
11427;SDS011;5770;44.504;11.346;2023-04-06T01:49:25;4.70;;;3.90;;
11427;SDS011;5770;44.504;11.346;2023-04-06T01:51:53;4.40;;;3.85;;
11427;SDS011;5770;44.504;11.346;2023-04-06T01:54:20;7.20;;;3.75;;
11427;SDS011;5770;44.504;11.346;2023-04-06T01:56:48;4.10;;;3.70;;
11427;SDS011;5770;44.504;11.346;2023-04-06T01:59:17;5.75;;;4.07;;
11427;SDS011;5770;44.504;11.346;2023-04-06T02:01:44;5.03;;;3.47;;
11427;SDS011;5770;44.504;11.346;2023-04-06T02:04:11;4.90;;;4.05;;
11427;SDS011;5770;44.504;11.346;2023-04-06T02:06:39;5.25;;;3.97;;
11427;SDS011;5770;44.504;11.346;2023-04-06T02:09:07;5.40;;;3.90;;
11427;SDS011;5770;44.504;11.346;2023-04-06T02:11:34;5.50;;;4.25;;
11427;SDS011;5770;44.504;11.346;2023-04-06T02:14:03;6.00;;;3.90;;
11427;SDS011;5770;44.504;11.346;2023-04-06T02:16:30;5.75;;;3.60;;
11427;SDS011;5770;44.504;11.346;2023-04-06T02:18:57;5.68;;;4.32;;
11427;SDS011;5770;44.504;11.346;2023-04-06T02:21:24;5.65;;;3.78;;
11427;SDS011;5770;44.504;11.346;2023-04-06T02:23:51;5.50;;;3.88;;
11427;SDS011;5770;44.504;11.346;2023-04-06T02:26:19;5.93;;;3.95;;
11427;SDS011;5770;44.504;11.346;2023-04-06T02:28:46;5.00;;;3.65;;
11427;SDS011;5770;44.504;11.346;2023-04-06T02:31:15;5.20;;;3.75;;
11427;SDS011;5770;44.504;11.346;2023-04-06T02:33:45;5.30;;;3.60;;
11427;SDS011;5770;44.504;11.346;2023-04-06T02:36:12;4.93;;;4.03;;
11427;SDS011;5770;44.504;11.346;2023-04-06T02:38:40;6.93;;;4.15;;
11427;SDS011;5770;44.504;11.346;2023-04-06T02:41:07;4.95;;;3.80;;
11427;SDS011;5770;44.504;11.346;2023-04-06T02:43:34;5.60;;;3.90;;
11427;SDS011;5770;44.504;11.346;2023-04-06T02:46:01;4.40;;;4.00;;
11427;SDS011;5770;44.504;11.346;2023-04-06T02:48:30;6.90;;;4.30;;
11427;SDS011;5770;44.504;11.346;2023-04-06T02:51:01;4.32;;;3.92;;
11427;SDS011;5770;44.504;11.346;2023-04-06T02:53:28;5.22;;;3.67;;
11427;SDS011;5770;44.504;11.346;2023-04-06T02:55:55;8.40;;;3.75;;
11427;SDS011;5770;44.504;11.346;2023-04-06T02:58:22;4.80;;;3.85;;
11427;SDS011;5770;44.504;11.346;2023-04-06T03:00:49;4.72;;;3.90;;
11427;SDS011;5770;44.504;11.346;2023-04-06T03:03:16;4.28;;;3.88;;
11427;SDS011;5770;44.504;11.346;2023-04-06T03:05:45;5.47;;;4.07;;
11427;SDS011;5770;44.504;11.346;2023-04-06T03:08:12;5.50;;;4.10;;
11427;SDS011;5770;44.504;11.346;2023-04-06T03:10:39;4.38;;;3.78;;
11427;SDS011;5770;44.504;11.346;2023-04-06T03:13:07;4.82;;;3.50;;
11427;SDS011;5770;44.504;11.346;2023-04-06T03:15:34;5.22;;;4.00;;
11427;SDS011;5770;44.504;11.346;2023-04-06T03:18:01;5.70;;;4.13;;
11427;SDS011;5770;44.504;11.346;2023-04-06T03:20:28;5.53;;;4.38;;
11427;SDS011;5770;44.504;11.346;2023-04-06T03:22:57;5.68;;;4.25;;
11427;SDS011;5770;44.504;11.346;2023-04-06T03:25:24;5.47;;;3.90;;
11427;SDS011;5770;44.504;11.346;2023-04-06T03:27:51;7.85;;;4.03;;
11427;SDS011;5770;44.504;11.346;2023-04-06T03:30:19;6.88;;;4.05;;
11427;SDS011;5770;44.504;11.346;2023-04-06T03:32:46;7.43;;;3.60;;
11427;SDS011;5770;44.504;11.346;2023-04-06T03:35:13;6.22;;;3.80;;
11427;SDS011;5770;44.504;11.346;2023-04-06T03:37:41;5.60;;;4.45;;
11427;SDS011;5770;44.504;11.346;2023-04-06T03:40:10;7.40;;;4.78;;
11427;SDS011;5770;44.504;11.346;2023-04-06T03:42:37;10.02;;;4.10;;
11427;SDS011;5770;44.504;11.346;2023-04-06T03:45:05;7.93;;;4.38;;
11427;SDS011;5770;44.504;11.346;2023-04-06T03:47:32;6.68;;;4.63;;
11427;SDS011;5770;44.504;11.346;2023-04-06T03:50:00;9.43;;;4.95;;
11427;SDS011;5770;44.504;11.346;2023-04-06T03:52:28;10.75;;;4.60;;
11427;SDS011;5770;44.504;11.346;2023-04-06T03:54:55;7.85;;;4.95;;
11427;SDS011;5770;44.504;11.346;2023-04-06T03:57:24;10.90;;;5.15;;
11427;SDS011;5770;44.504;11.346;2023-04-06T03:59:51;9.38;;;4.97;;
11427;SDS011;5770;44.504;11.346;2023-04-06T04:02:18;7.78;;;4.72;;
11427;SDS011;5770;44.504;11.346;2023-04-06T04:04:45;7.05;;;4.97;;
11427;SDS011;5770;44.504;11.346;2023-04-06T04:07:12;5.13;;;4.22;;
11427;SDS011;5770;44.504;11.346;2023-04-06T04:09:39;4.68;;;3.80;;
11427;SDS011;5770;44.504;11.346;2023-04-06T04:12:06;6.10;;;3.63;;
11427;SDS011;5770;44.504;11.346;2023-04-06T04:14:35;5.43;;;3.67;;
11427;SDS011;5770;44.504;11.346;2023-04-06T04:17:02;5.03;;;3.38;;
11427;SDS011;5770;44.504;11.346;2023-04-06T04:19:29;7.35;;;4.05;;
11427;SDS011;5770;44.504;11.346;2023-04-06T04:21:56;4.65;;;3.88;;
11427;SDS011;5770;44.504;11.346;2023-04-06T04:24:24;4.45;;;3.40;;
11427;SDS011;5770;44.504;11.346;2023-04-06T04:26:51;8.02;;;3.78;;
11427;SDS011;5770;44.504;11.346;2023-04-06T04:29:18;7.20;;;3.47;;
11427;SDS011;5770;44.504;11.346;2023-04-06T04:31:49;6.03;;;3.40;;
11427;SDS011;5770;44.504;11.346;2023-04-06T04:34:17;3.63;;;3.28;;
11427;SDS011;5770;44.504;11.346;2023-04-06T04:36:45;6.47;;;3.80;;
11427;SDS011;5770;44.504;11.346;2023-04-06T04:39:13;5.50;;;3.60;;
11427;SDS011;5770;44.504;11.346;2023-04-06T04:41:40;6.22;;;3.83;;
11427;SDS011;5770;44.504;11.346;2023-04-06T04:44:07;5.28;;;3.60;;
11427;SDS011;5770;44.504;11.346;2023-04-06T04:46:34;4.10;;;3.70;;
11427;SDS011;5770;44.504;11.346;2023-04-06T04:49:03;6.05;;;3.60;;
11427;SDS011;5770;44.504;11.346;2023-04-06T04:51:30;5.80;;;4.00;;
11427;SDS011;5770;44.504;11.346;2023-04-06T04:53:58;4.97;;;3.72;;
11427;SDS011;5770;44.504;11.346;2023-04-06T04:56:25;6.28;;;4.10;;
11427;SDS011;5770;44.504;11.346;2023-04-06T04:58:54;5.47;;;3.75;;
11427;SDS011;5770;44.504;11.346;2023-04-06T05:01:21;7.60;;;4.20;;
11427;SDS011;5770;44.504;11.346;2023-04-06T05:03:49;4.30;;;3.70;;
11427;SDS011;5770;44.504;11.346;2023-04-06T05:06:17;6.65;;;4.10;;
11427;SDS011;5770;44.504;11.346;2023-04-06T05:08:45;6.20;;;4.10;;
11427;SDS011;5770;44.504;11.346;2023-04-06T05:11:12;8.50;;;3.72;;
11427;SDS011;5770;44.504;11.346;2023-04-06T05:13:39;5.70;;;3.80;;
11427;SDS011;5770;44.504;11.346;2023-04-06T05:16:06;6.05;;;3.70;;
11427;SDS011;5770;44.504;11.346;2023-04-06T05:18:33;7.60;;;4.50;;
11427;SDS011;5770;44.504;11.346;2023-04-06T05:21:01;7.57;;;4.25;;
11427;SDS011;5770;44.504;11.346;2023-04-06T05:23:29;8.65;;;4.25;;
11427;SDS011;5770;44.504;11.346;2023-04-06T05:25:56;7.07;;;4.50;;
11427;SDS011;5770;44.504;11.346;2023-04-06T05:28:24;7.00;;;3.95;;
11427;SDS011;5770;44.504;11.346;2023-04-06T05:30:52;5.95;;;4.55;;
11427;SDS011;5770;44.504;11.346;2023-04-06T05:33:19;6.20;;;4.55;;
11427;SDS011;5770;44.504;11.346;2023-04-06T05:35:47;7.43;;;4.28;;
11427;SDS011;5770;44.504;11.346;2023-04-06T05:38:14;5.28;;;4.18;;
11427;SDS011;5770;44.504;11.346;2023-04-06T05:40:43;6.25;;;4.53;;
11427;SDS011;5770;44.504;11.346;2023-04-06T05:43:10;8.43;;;4.60;;
11427;SDS011;5770;44.504;11.346;2023-04-06T05:45:37;10.00;;;4.60;;
11427;SDS011;5770;44.504;11.346;2023-04-06T05:48:04;6.45;;;4.75;;
11427;SDS011;5770;44.504;11.346;2023-04-06T05:50:32;10.38;;;4.78;;
11427;SDS011;5770;44.504;11.346;2023-04-06T05:52:59;11.57;;;4.82;;
11427;SDS011;5770;44.504;11.346;2023-04-06T05:55:26;24.20;;;5.47;;
11427;SDS011;5770;44.504;11.346;2023-04-06T05:57:55;19.38;;;5.13;;
11427;SDS011;5770;44.504;11.346;2023-04-06T06:00:22;22.40;;;5.35;;
11427;SDS011;5770;44.504;11.346;2023-04-06T06:02:50;16.15;;;5.32;;
11427;SDS011;5770;44.504;11.346;2023-04-06T06:05:17;13.60;;;5.15;;
11427;SDS011;5770;44.504;11.346;2023-04-06T06:07:47;9.43;;;4.60;;
11427;SDS011;5770;44.504;11.346;2023-04-06T06:10:15;9.65;;;5.30;;
11427;SDS011;5770;44.504;11.346;2023-04-06T06:12:44;9.48;;;5.03;;
11427;SDS011;5770;44.504;11.346;2023-04-06T06:15:13;12.10;;;5.70;;
11427;SDS011;5770;44.504;11.346;2023-04-06T06:17:40;10.38;;;5.50;;
11427;SDS011;5770;44.504;11.346;2023-04-06T06:20:08;11.65;;;5.47;;
11427;SDS011;5770;44.504;11.346;2023-04-06T06:22:35;12.80;;;6.22;;
11427;SDS011;5770;44.504;11.346;2023-04-06T06:25:03;11.52;;;5.80;;
11427;SDS011;5770;44.504;11.346;2023-04-06T06:27:30;9.70;;;6.97;;
11427;SDS011;5770;44.504;11.346;2023-04-06T06:29:57;12.23;;;6.40;;
11427;SDS011;5770;44.504;11.346;2023-04-06T06:32:26;10.10;;;6.47;;
11427;SDS011;5770;44.504;11.346;2023-04-06T06:34:53;10.77;;;6.00;;
11427;SDS011;5770;44.504;11.346;2023-04-06T06:37:21;8.82;;;5.38;;
11427;SDS011;5770;44.504;11.346;2023-04-06T06:39:48;16.25;;;5.90;;
11427;SDS011;5770;44.504;11.346;2023-04-06T06:42:15;10.55;;;5.55;;
11427;SDS011;5770;44.504;11.346;2023-04-06T06:44:42;13.65;;;6.25;;
11427;SDS011;5770;44.504;11.346;2023-04-06T06:47:10;12.23;;;5.72;;
11427;SDS011;5770;44.504;11.346;2023-04-06T06:49:38;13.15;;;5.82;;
11427;SDS011;5770;44.504;11.346;2023-04-06T06:52:08;9.65;;;6.22;;
11427;SDS011;5770;44.504;11.346;2023-04-06T06:54:36;16.55;;;5.22;;
11427;SDS011;5770;44.504;11.346;2023-04-06T06:57:03;8.68;;;5.80;;
11427;SDS011;5770;44.504;11.346;2023-04-06T06:59:30;7.93;;;4.35;;
11427;SDS011;5770;44.504;11.346;2023-04-06T07:01:58;8.30;;;5.22;;
11427;SDS011;5770;44.504;11.346;2023-04-06T07:04:25;12.35;;;6.03;;
11427;SDS011;5770;44.504;11.346;2023-04-06T07:06:53;11.57;;;5.47;;
11427;SDS011;5770;44.504;11.346;2023-04-06T07:09:21;15.27;;;5.70;;
11427;SDS011;5770;44.504;11.346;2023-04-06T07:11:48;15.52;;;4.82;;
11427;SDS011;5770;44.504;11.346;2023-04-06T07:14:15;11.32;;;4.85;;
11427;SDS011;5770;44.504;11.346;2023-04-06T07:16:43;15.07;;;4.95;;
11427;SDS011;5770;44.504;11.346;2023-04-06T07:19:11;9.80;;;4.47;;
11427;SDS011;5770;44.504;11.346;2023-04-06T07:21:39;5.72;;;3.75;;
11427;SDS011;5770;44.504;11.346;2023-04-06T07:24:07;6.15;;;4.18;;
11427;SDS011;5770;44.504;11.346;2023-04-06T07:26:35;8.23;;;4.18;;
11427;SDS011;5770;44.504;11.346;2023-04-06T07:29:02;7.82;;;5.35;;
11427;SDS011;5770;44.504;11.346;2023-04-06T07:31:29;8.38;;;4.22;;
11427;SDS011;5770;44.504;11.346;2023-04-06T07:33:57;9.18;;;4.90;;
11427;SDS011;5770;44.504;11.346;2023-04-06T07:36:24;7.80;;;4.20;;
11427;SDS011;5770;44.504;11.346;2023-04-06T07:38:51;8.13;;;4.55;;
11427;SDS011;5770;44.504;11.346;2023-04-06T07:41:20;9.57;;;4.85;;
11427;SDS011;5770;44.504;11.346;2023-04-06T07:43:47;12.38;;;5.10;;
11427;SDS011;5770;44.504;11.346;2023-04-06T07:46:14;8.25;;;4.90;;
11427;SDS011;5770;44.504;11.346;2023-04-06T07:48:42;9.85;;;4.55;;
11427;SDS011;5770;44.504;11.346;2023-04-06T07:51:09;8.25;;;4.32;;
11427;SDS011;5770;44.504;11.346;2023-04-06T07:53:39;6.38;;;4.30;;
11427;SDS011;5770;44.504;11.346;2023-04-06T07:56:06;8.63;;;4.50;;
11427;SDS011;5770;44.504;11.346;2023-04-06T07:58:35;8.43;;;4.47;;
11427;SDS011;5770;44.504;11.346;2023-04-06T08:01:02;6.13;;;4.82;;
11427;SDS011;5770;44.504;11.346;2023-04-06T08:03:29;8.30;;;4.72;;
11427;SDS011;5770;44.504;11.346;2023-04-06T08:05:56;52.47;;;6.85;;
11427;SDS011;5770;44.504;11.346;2023-04-06T08:08:24;9.35;;;5.28;;
11427;SDS011;5770;44.504;11.346;2023-04-06T08:10:51;8.80;;;4.32;;
11427;SDS011;5770;44.504;11.346;2023-04-06T08:13:18;9.85;;;5.10;;
11427;SDS011;5770;44.504;11.346;2023-04-06T08:15:47;13.38;;;4.65;;
11427;SDS011;5770;44.504;11.346;2023-04-06T08:18:14;8.38;;;4.20;;
11427;SDS011;5770;44.504;11.346;2023-04-06T08:20:41;7.03;;;4.38;;
11427;SDS011;5770;44.504;11.346;2023-04-06T08:23:08;6.20;;;4.45;;
11427;SDS011;5770;44.504;11.346;2023-04-06T08:25:36;9.50;;;4.85;;
11427;SDS011;5770;44.504;11.346;2023-04-06T08:28:03;12.65;;;4.70;;
11427;SDS011;5770;44.504;11.346;2023-04-06T08:30:31;11.23;;;4.65;;
11427;SDS011;5770;44.504;11.346;2023-04-06T08:32:59;5.43;;;4.28;;
11427;SDS011;5770;44.504;11.346;2023-04-06T08:35:27;5.78;;;4.00;;
11427;SDS011;5770;44.504;11.346;2023-04-06T08:37:54;8.10;;;4.40;;
11427;SDS011;5770;44.504;11.346;2023-04-06T08:40:21;6.82;;;4.28;;
11427;SDS011;5770;44.504;11.346;2023-04-06T08:42:49;7.43;;;3.85;;
11427;SDS011;5770;44.504;11.346;2023-04-06T08:45:20;7.35;;;3.70;;
11427;SDS011;5770;44.504;11.346;2023-04-06T08:47:48;8.20;;;4.00;;
11427;SDS011;5770;44.504;11.346;2023-04-06T08:50:17;5.30;;;3.72;;
11427;SDS011;5770;44.504;11.346;2023-04-06T08:52:49;8.35;;;4.30;;
11427;SDS011;5770;44.504;11.346;2023-04-06T08:55:16;7.47;;;4.00;;
11427;SDS011;5770;44.504;11.346;2023-04-06T08:57:43;4.70;;;3.95;;
11427;SDS011;5770;44.504;11.346;2023-04-06T09:00:11;6.93;;;4.28;;
11427;SDS011;5770;44.504;11.346;2023-04-06T09:02:39;5.78;;;3.75;;
11427;SDS011;5770;44.504;11.346;2023-04-06T09:05:11;4.85;;;3.70;;
11427;SDS011;5770;44.504;11.346;2023-04-06T09:07:42;5.20;;;3.40;;
11427;SDS011;5770;44.504;11.346;2023-04-06T09:10:10;4.85;;;3.08;;
11427;SDS011;5770;44.504;11.346;2023-04-06T09:12:38;4.15;;;3.05;;
11427;SDS011;5770;44.504;11.346;2023-04-06T09:15:05;6.50;;;2.83;;
11427;SDS011;5770;44.504;11.346;2023-04-06T09:17:43;5.97;;;3.00;;
11427;SDS011;5770;44.504;11.346;2023-04-06T09:20:11;6.45;;;3.03;;
11427;SDS011;5770;44.504;11.346;2023-04-06T09:22:38;6.35;;;3.47;;
11427;SDS011;5770;44.504;11.346;2023-04-06T09:25:08;8.85;;;4.28;;
11427;SDS011;5770;44.504;11.346;2023-04-06T09:27:36;5.97;;;3.65;;
11427;SDS011;5770;44.504;11.346;2023-04-06T09:30:04;4.93;;;4.00;;
11427;SDS011;5770;44.504;11.346;2023-04-06T09:32:43;7.22;;;3.97;;
11427;SDS011;5770;44.504;11.346;2023-04-06T09:35:11;9.27;;;4.30;;
11427;SDS011;5770;44.504;11.346;2023-04-06T09:37:38;5.60;;;4.05;;
11427;SDS011;5770;44.504;11.346;2023-04-06T09:40:06;4.75;;;4.00;;
11427;SDS011;5770;44.504;11.346;2023-04-06T09:42:35;6.85;;;4.20;;
11427;SDS011;5770;44.504;11.346;2023-04-06T09:45:02;4.47;;;4.00;;
11427;SDS011;5770;44.504;11.346;2023-04-06T09:47:32;6.72;;;4.07;;
11427;SDS011;5770;44.504;11.346;2023-04-06T09:50:00;5.53;;;4.00;;
11427;SDS011;5770;44.504;11.346;2023-04-06T09:52:30;6.68;;;4.20;;
11427;SDS011;5770;44.504;11.346;2023-04-06T09:54:59;9.77;;;3.97;;
11427;SDS011;5770;44.504;11.346;2023-04-06T09:57:32;5.38;;;3.88;;
11427;SDS011;5770;44.504;11.346;2023-04-06T10:00:02;5.93;;;4.35;;
11427;SDS011;5770;44.504;11.346;2023-04-06T10:02:35;5.93;;;4.00;;
11427;SDS011;5770;44.504;11.346;2023-04-06T10:05:07;6.00;;;4.30;;
11427;SDS011;5770;44.504;11.346;2023-04-06T10:07:36;7.95;;;5.13;;
11427;SDS011;5770;44.504;11.346;2023-04-06T10:10:06;5.20;;;4.15;;
11427;SDS011;5770;44.504;11.346;2023-04-06T10:12:35;7.10;;;4.43;;
11427;SDS011;5770;44.504;11.346;2023-04-06T10:15:03;5.80;;;4.03;;
11427;SDS011;5770;44.504;11.346;2023-04-06T10:17:31;5.55;;;4.30;;
11427;SDS011;5770;44.504;11.346;2023-04-06T10:19:59;4.93;;;3.88;;
11427;SDS011;5770;44.504;11.346;2023-04-06T10:22:29;9.75;;;4.38;;
11427;SDS011;5770;44.504;11.346;2023-04-06T10:24:56;6.53;;;3.95;;
11427;SDS011;5770;44.504;11.346;2023-04-06T10:27:27;4.88;;;4.00;;
11427;SDS011;5770;44.504;11.346;2023-04-06T10:30:00;7.05;;;4.75;;
11427;SDS011;5770;44.504;11.346;2023-04-06T10:32:37;4.95;;;4.45;;
11427;SDS011;5770;44.504;11.346;2023-04-06T10:35:06;6.35;;;4.20;;
11427;SDS011;5770;44.504;11.346;2023-04-06T10:37:48;7.03;;;4.07;;
11427;SDS011;5770;44.504;11.346;2023-04-06T10:40:20;12.43;;;4.53;;
11427;SDS011;5770;44.504;11.346;2023-04-06T10:42:48;8.15;;;4.47;;
11427;SDS011;5770;44.504;11.346;2023-04-06T10:45:20;6.30;;;4.32;;
11427;SDS011;5770;44.504;11.346;2023-04-06T10:47:48;5.03;;;4.47;;
11427;SDS011;5770;44.504;11.346;2023-04-06T10:50:19;5.97;;;4.43;;
11427;SDS011;5770;44.504;11.346;2023-04-06T10:52:47;6.43;;;5.22;;
11427;SDS011;5770;44.504;11.346;2023-04-06T10:55:25;6.70;;;5.10;;
11427;SDS011;5770;44.504;11.346;2023-04-06T10:57:53;8.90;;;5.47;;
11427;SDS011;5770;44.504;11.346;2023-04-06T11:00:22;6.35;;;4.50;;
11427;SDS011;5770;44.504;11.346;2023-04-06T11:02:49;9.60;;;5.05;;
11427;SDS011;5770;44.504;11.346;2023-04-06T11:05:17;6.78;;;5.00;;
11427;SDS011;5770;44.504;11.346;2023-04-06T11:07:44;7.18;;;4.80;;
11427;SDS011;5770;44.504;11.346;2023-04-06T11:10:11;6.05;;;5.00;;
11427;SDS011;5770;44.504;11.346;2023-04-06T11:12:39;6.55;;;5.35;;
11427;SDS011;5770;44.504;11.346;2023-04-06T11:15:09;11.98;;;5.60;;
11427;SDS011;5770;44.504;11.346;2023-04-06T11:17:38;5.80;;;5.20;;
11427;SDS011;5770;44.504;11.346;2023-04-06T11:20:09;11.35;;;7.10;;
11427;SDS011;5770;44.504;11.346;2023-04-06T11:22:47;6.57;;;5.80;;
11427;SDS011;5770;44.504;11.346;2023-04-06T11:25:15;8.50;;;5.65;;
11427;SDS011;5770;44.504;11.346;2023-04-06T11:27:43;8.90;;;6.00;;
11427;SDS011;5770;44.504;11.346;2023-04-06T11:30:10;7.10;;;5.72;;
11427;SDS011;5770;44.504;11.346;2023-04-06T11:32:41;6.88;;;5.75;;
11427;SDS011;5770;44.504;11.346;2023-04-06T11:35:10;7.25;;;5.45;;
11427;SDS011;5770;44.504;11.346;2023-04-06T11:37:38;6.43;;;5.38;;
11427;SDS011;5770;44.504;11.346;2023-04-06T11:40:07;7.03;;;6.05;;
11427;SDS011;5770;44.504;11.346;2023-04-06T11:42:35;8.88;;;5.80;;
11427;SDS011;5770;44.504;11.346;2023-04-06T11:45:02;5.75;;;5.13;;
11427;SDS011;5770;44.504;11.346;2023-04-06T11:47:30;7.55;;;5.88;;
11427;SDS011;5770;44.504;11.346;2023-04-06T11:50:12;5.97;;;5.32;;
11427;SDS011;5770;44.504;11.346;2023-04-06T11:52:40;8.63;;;5.55;;
11427;SDS011;5770;44.504;11.346;2023-04-06T11:55:12;6.18;;;5.57;;
11427;SDS011;5770;44.504;11.346;2023-04-06T11:57:40;7.50;;;6.07;;
11427;SDS011;5770;44.504;11.346;2023-04-06T12:00:08;8.63;;;6.15;;
11427;SDS011;5770;44.504;11.346;2023-04-06T12:02:35;9.98;;;5.97;;
11427;SDS011;5770;44.504;11.346;2023-04-06T12:05:03;6.75;;;6.00;;
11427;SDS011;5770;44.504;11.346;2023-04-06T12:07:32;8.75;;;5.40;;
11427;SDS011;5770;44.504;11.346;2023-04-06T12:10:00;10.88;;;5.75;;
11427;SDS011;5770;44.504;11.346;2023-04-06T12:12:27;6.57;;;5.68;;
11427;SDS011;5770;44.504;11.346;2023-04-06T12:14:55;9.50;;;6.43;;
11427;SDS011;5770;44.504;11.346;2023-04-06T12:17:25;6.85;;;5.97;;
11427;SDS011;5770;44.504;11.346;2023-04-06T12:19:55;6.97;;;6.22;;
11427;SDS011;5770;44.504;11.346;2023-04-06T12:22:24;8.38;;;5.97;;
11427;SDS011;5770;44.504;11.346;2023-04-06T12:24:52;9.20;;;5.97;;
11427;SDS011;5770;44.504;11.346;2023-04-06T12:27:20;6.88;;;5.70;;
11427;SDS011;5770;44.504;11.346;2023-04-06T12:29:47;6.03;;;5.43;;
11427;SDS011;5770;44.504;11.346;2023-04-06T12:32:18;7.38;;;6.30;;
11427;SDS011;5770;44.504;11.346;2023-04-06T12:34:48;7.65;;;6.15;;
11427;SDS011;5770;44.504;11.346;2023-04-06T12:37:15;15.48;;;6.65;;
11427;SDS011;5770;44.504;11.346;2023-04-06T12:39:43;10.82;;;5.60;;
11427;SDS011;5770;44.504;11.346;2023-04-06T12:42:11;7.63;;;5.80;;
11427;SDS011;5770;44.504;11.346;2023-04-06T12:44:39;10.15;;;5.95;;
11427;SDS011;5770;44.504;11.346;2023-04-06T12:47:07;6.95;;;6.05;;
11427;SDS011;5770;44.504;11.346;2023-04-06T12:49:36;6.63;;;5.93;;
11427;SDS011;5770;44.504;11.346;2023-04-06T12:52:03;9.73;;;6.00;;
11427;SDS011;5770;44.504;11.346;2023-04-06T12:54:30;7.53;;;5.85;;
11427;SDS011;5770;44.504;11.346;2023-04-06T12:56:58;7.25;;;6.40;;
11427;SDS011;5770;44.504;11.346;2023-04-06T12:59:27;8.68;;;6.82;;
11427;SDS011;5770;44.504;11.346;2023-04-06T13:01:59;6.72;;;5.85;;
11427;SDS011;5770;44.504;11.346;2023-04-06T13:04:26;6.85;;;5.75;;
11427;SDS011;5770;44.504;11.346;2023-04-06T13:06:53;11.02;;;6.50;;
11427;SDS011;5770;44.504;11.346;2023-04-06T13:09:21;6.97;;;6.10;;
11427;SDS011;5770;44.504;11.346;2023-04-06T13:11:48;7.10;;;6.07;;
11427;SDS011;5770;44.504;11.346;2023-04-06T13:14:15;8.93;;;6.55;;
11427;SDS011;5770;44.504;11.346;2023-04-06T13:16:44;9.68;;;6.57;;
11427;SDS011;5770;44.504;11.346;2023-04-06T13:19:11;10.80;;;6.00;;
11427;SDS011;5770;44.504;11.346;2023-04-06T13:21:38;6.78;;;6.10;;
11427;SDS011;5770;44.504;11.346;2023-04-06T13:24:06;8.45;;;6.22;;
11427;SDS011;5770;44.504;11.346;2023-04-06T13:26:33;10.25;;;6.05;;
11427;SDS011;5770;44.504;11.346;2023-04-06T13:29:01;9.73;;;6.18;;
11427;SDS011;5770;44.504;11.346;2023-04-06T13:31:28;7.60;;;6.20;;
11427;SDS011;5770;44.504;11.346;2023-04-06T13:33:57;6.72;;;5.40;;
11427;SDS011;5770;44.504;11.346;2023-04-06T13:36:25;6.30;;;5.70;;
11427;SDS011;5770;44.504;11.346;2023-04-06T13:38:52;6.70;;;6.03;;
11427;SDS011;5770;44.504;11.346;2023-04-06T13:41:20;6.47;;;5.82;;
11427;SDS011;5770;44.504;11.346;2023-04-06T13:43:48;6.75;;;5.90;;
11427;SDS011;5770;44.504;11.346;2023-04-06T13:46:15;7.82;;;5.93;;
11427;SDS011;5770;44.504;11.346;2023-04-06T13:48:43;7.47;;;6.22;;
11427;SDS011;5770;44.504;11.346;2023-04-06T13:51:13;6.78;;;5.90;;
11427;SDS011;5770;44.504;11.346;2023-04-06T13:53:41;8.32;;;5.43;;
11427;SDS011;5770;44.504;11.346;2023-04-06T13:56:08;7.03;;;5.47;;
11427;SDS011;5770;44.504;11.346;2023-04-06T13:58:35;8.05;;;5.22;;
11427;SDS011;5770;44.504;11.346;2023-04-06T14:01:03;7.97;;;5.93;;
11427;SDS011;5770;44.504;11.346;2023-04-06T14:03:31;10.05;;;7.72;;
11427;SDS011;5770;44.504;11.346;2023-04-06T14:05:58;7.70;;;5.78;;
11427;SDS011;5770;44.504;11.346;2023-04-06T14:08:28;11.38;;;6.70;;
11427;SDS011;5770;44.504;11.346;2023-04-06T14:10:55;9.48;;;5.70;;
11427;SDS011;5770;44.504;11.346;2023-04-06T14:13:23;7.32;;;5.72;;
11427;SDS011;5770;44.504;11.346;2023-04-06T14:15:52;6.68;;;5.72;;
11427;SDS011;5770;44.504;11.346;2023-04-06T14:18:20;6.68;;;5.78;;
11427;SDS011;5770;44.504;11.346;2023-04-06T14:20:53;13.25;;;5.60;;
11427;SDS011;5770;44.504;11.346;2023-04-06T14:23:21;6.75;;;5.63;;
11427;SDS011;5770;44.504;11.346;2023-04-06T14:25:50;9.55;;;6.05;;
11427;SDS011;5770;44.504;11.346;2023-04-06T14:28:17;9.45;;;6.05;;
11427;SDS011;5770;44.504;11.346;2023-04-06T14:30:44;8.18;;;6.05;;
11427;SDS011;5770;44.504;11.346;2023-04-06T14:33:11;7.80;;;5.50;;
11427;SDS011;5770;44.504;11.346;2023-04-06T14:35:38;6.10;;;5.50;;
11427;SDS011;5770;44.504;11.346;2023-04-06T14:38:06;6.75;;;4.88;;
11427;SDS011;5770;44.504;11.346;2023-04-06T14:40:34;8.20;;;6.10;;
11427;SDS011;5770;44.504;11.346;2023-04-06T14:43:03;10.55;;;5.60;;
11427;SDS011;5770;44.504;11.346;2023-04-06T14:45:32;7.85;;;5.70;;
11427;SDS011;5770;44.504;11.346;2023-04-06T14:48:01;9.27;;;5.50;;
11427;SDS011;5770;44.504;11.346;2023-04-06T14:50:30;8.93;;;5.35;;